Time;durP1;ratioP1;P1;durP2;ratioP2;P2;SDS_P1;SDS_P2;PMS_P1;PMS_P2;Temp;Humidity;BMP_temperature;BMP_pressure;BME280_temperature;BME280_humidity;BME280_pressure;Samples;Min_cycle;Max_cycle;Signal;HPM_P1;HPM_P2
2023/03/20 00:02:25;;;;;;;36.63;16.42;;;;;;;2.50;79.83;100828.45;1730430;82;21044;-60
2023/03/20 00:04:55;;;;;;;34.18;16.02;;;;;;;2.52;79.97;100822.41;1730579;82;21071;-60
2023/03/20 00:07:25;;;;;;;32.30;16.00;;;;;;;2.53;80.05;100818.22;1730253;83;21023;-59
2023/03/20 00:09:56;;;;;;;35.43;15.32;;;;;;;2.54;80.00;100814.52;1730091;83;21476;-60
2023/03/20 00:12:27;;;;;;;31.27;15.00;;;;;;;2.53;80.03;100819.56;1730134;82;21040;-60
2023/03/20 00:14:56;;;;;;;30.48;15.13;;;;;;;2.52;80.06;100819.20;1730601;82;21019;-60
2023/03/20 00:17:26;;;;;;;30.32;14.43;;;;;;;2.49;80.06;100819.48;1730392;83;21476;-60
2023/03/20 00:19:56;;;;;;;29.30;13.10;;;;;;;2.46;80.17;100812.98;1730455;83;21095;-57
2023/03/20 00:22:24;;;;;;;26.45;14.33;;;;;;;2.45;80.27;100812.63;1730317;83;21055;-59
2023/03/20 00:24:56;;;;;;;29.35;14.10;;;;;;;2.44;80.39;100810.06;1730583;82;21024;-59
2023/03/20 00:27:25;;;;;;;25.50;13.05;;;;;;;2.44;80.51;100806.00;1730633;82;21486;-59
2023/03/20 00:29:55;;;;;;;29.25;13.62;;;;;;;2.42;80.55;100801.23;1730688;83;21071;-59
2023/03/20 00:32:25;;;;;;;28.30;12.75;;;;;;;2.37;80.57;100800.77;1730353;82;21086;-59
2023/03/20 00:34:57;;;;;;;26.40;13.40;;;;;;;2.32;80.62;100791.72;1730118;83;21072;-58
2023/03/20 00:37:27;;;;;;;29.12;13.58;;;;;;;2.28;80.79;100788.06;1730517;82;20984;-58
2023/03/20 00:39:58;;;;;;;28.17;13.83;;;;;;;2.27;80.92;100786.35;1730857;83;21012;-60
2023/03/20 00:42:27;;;;;;;29.98;13.25;;;;;;;2.28;81.02;100790.77;1709900;83;21079;-59
2023/03/20 00:44:58;;;;;;;28.98;12.95;;;;;;;2.28;81.04;100779.95;1730621;83;21031;-59
2023/03/20 00:47:29;;;;;;;24.65;13.18;;;;;;;2.25;81.11;100785.14;1730144;83;21028;-59
2023/03/20 00:49:57;;;;;;;24.35;12.25;;;;;;;2.23;81.18;100781.22;1730340;82;21036;-59
2023/03/20 00:52:27;;;;;;;25.48;12.18;;;;;;;2.21;81.15;100781.84;1730399;83;21440;-59
2023/03/20 00:54:57;;;;;;;24.18;12.68;;;;;;;2.18;81.17;100790.23;1730431;82;21020;-60
2023/03/20 00:57:32;;;;;;;30.37;13.72;;;;;;;2.16;81.27;100781.39;1730429;83;21015;-59
2023/03/20 01:00:10;;;;;;;26.30;12.88;;;;;;;2.16;81.40;100775.98;1730655;83;21020;-60
2023/03/20 01:02:40;;;;;;;26.73;12.53;;;;;;;2.17;81.49;100777.70;1709161;83;21043;-59
2023/03/20 01:05:11;;;;;;;24.40;12.05;;;;;;;2.18;81.39;100775.36;1732143;83;21040;-59
2023/03/20 01:07:41;;;;;;;26.73;13.88;;;;;;;2.15;81.42;100775.63;1733302;83;21470;-59
2023/03/20 01:10:11;;;;;;;24.15;12.33;;;;;;;2.10;81.48;100775.17;1723484;82;21078;-60
2023/03/20 01:12:40;;;;;;;28.45;13.62;;;;;;;2.06;81.57;100772.87;1696393;82;21090;-59
2023/03/20 01:15:20;;;;;;;27.15;13.50;;;;;;;2.01;81.63;100773.77;1715084;82;21078;-60
2023/03/20 01:17:49;;;;;;;31.07;13.90;;;;;;;1.97;81.69;100774.53;1717864;83;21023;-60
2023/03/20 01:20:25;;;;;;;30.57;13.08;;;;;;;1.95;81.90;100774.27;1718249;83;21011;-59
2023/03/20 01:22:58;;;;;;;31.25;13.93;;;;;;;1.97;82.00;100769.63;1718454;83;21355;-61
2023/03/20 01:25:30;;;;;;;25.27;13.53;;;;;;;1.94;82.05;100768.02;1718311;83;21090;-61
2023/03/20 01:28:17;;;;;;;25.12;12.90;;;;;;;1.93;82.04;100764.95;1698643;83;21098;-61
2023/03/20 01:30:52;;;;;;;30.82;14.47;;;;;;;1.92;82.04;100768.64;1721356;82;21031;-60
2023/03/20 01:33:25;;;;;;;34.90;14.93;;;;;;;1.86;82.03;100771.88;1717631;82;21467;-59
2023/03/20 01:35:56;;;;;;;31.77;14.23;;;;;;;1.82;82.06;100772.63;1717888;83;21059;-60
2023/03/20 01:38:25;;;;;;;32.45;14.25;;;;;;;1.78;82.06;100774.38;1717649;83;21058;-60
2023/03/20 01:41:05;;;;;;;32.35;14.35;;;;;;;1.78;82.21;100768.98;1717353;83;21035;-59
2023/03/20 01:43:34;;;;;;;36.05;15.85;;;;;;;1.80;82.30;100767.00;1697178;82;21070;-61
2023/03/20 01:46:20;;;;;;;39.85;16.12;;;;;;;1.80;82.28;100765.66;1717779;83;21015;-59
2023/03/20 01:48:59;;;;;;;41.88;16.23;;;;;;;1.76;82.37;100762.86;1717744;82;21062;-57
2023/03/20 01:51:31;;;;;;;43.55;16.75;;;;;;;1.73;82.37;100763.12;1717852;83;21537;-60
2023/03/20 01:54:10;;;;;;;42.35;17.07;;;;;;;1.70;82.47;100760.68;1717679;83;21019;-59
2023/03/20 01:57:02;;;;;;;36.98;15.93;;;;;;;1.66;82.52;100768.69;1716895;82;21057;-59
2023/03/20 01:59:43;;;;;;;37.15;14.78;;;;;;;1.63;82.68;100768.45;1717727;83;21027;-60
2023/03/20 02:02:15;;;;;;;40.48;15.75;;;;;;;1.64;82.86;100769.31;1717547;83;20991;-60
2023/03/20 02:04:47;;;;;;;38.05;16.30;;;;;;;1.65;82.82;100776.42;1698085;82;21066;-59
2023/03/20 02:07:18;;;;;;;37.25;15.63;;;;;;;1.67;82.90;100774.45;1717749;83;21439;-59
2023/03/20 02:09:49;;;;;;;42.88;15.20;;;;;;;1.66;82.83;100774.09;1716773;83;21026;-60
2023/03/20 02:12:20;;;;;;;37.13;15.30;;;;;;;1.65;82.83;100777.77;1714828;82;21095;-59
2023/03/20 02:14:49;;;;;;;33.00;14.53;;;;;;;1.64;82.91;100776.92;1706950;84;21000;-59
2023/03/20 02:17:19;;;;;;;39.48;16.23;;;;;;;1.65;83.01;100780.48;1706094;84;21056;-59
2023/03/20 02:20:10;;;;;;;40.67;16.15;;;;;;;1.68;83.03;100777.52;1705988;83;21023;-59
2023/03/20 02:22:45;;;;;;;35.78;15.60;;;;;;;1.72;83.14;100774.42;1707273;83;21063;-59
2023/03/20 02:25:54;;;;;;;37.45;16.32;;;;;;;1.74;83.18;100768.88;1707204;84;21455;-58
2023/03/20 02:28:39;;;;;;;28.27;11.90;;;;;;;1.75;83.14;100768.75;1707328;84;21487;-59
2023/03/20 02:31:34;;;;;;;35.15;15.43;;;;;;;1.73;83.08;100776.13;1706911;84;21463;-60
2023/03/20 02:34:30;;;;;;;35.35;15.63;;;;;;;1.71;83.16;100774.55;1707038;84;21023;-60
2023/03/20 02:37:36;;;;;;;48.15;18.62;;;;;;;1.71;83.18;100770.00;1707098;84;21048;-59
2023/03/20 02:40:14;;;;;;;38.88;17.17;;;;;;;1.71;83.15;100768.66;1705886;84;21091;-59
2023/03/20 02:43:16;;;;;;;32.75;14.98;;;;;;;1.73;83.01;100764.47;1707244;84;21023;-60
2023/03/20 02:46:13;;;;;;;31.55;15.32;;;;;;;1.69;82.91;100758.97;1706406;84;21048;-59
2023/03/20 02:48:59;;;;;;;32.20;15.32;;;;;;;1.62;82.78;100757.78;1707260;83;21530;-60
2023/03/20 02:51:51;;;;;;;32.23;14.53;;;;;;;1.56;82.92;100747.88;1706852;84;21076;-60
2023/03/20 02:54:32;;;;;;;29.98;13.65;;;;;;;1.53;83.15;100750.83;1706893;84;21035;-60
2023/03/20 02:57:06;;;;;;;30.05;14.10;;;;;;;1.50;83.29;100740.30;1707286;83;21059;-59
2023/03/20 02:59:46;;;;;;;29.98;14.58;;;;;;;1.47;83.36;100731.11;1706726;84;21028;-58
2023/03/20 03:02:35;;;;;;;29.92;14.25;;;;;;;1.46;83.45;100729.89;1707151;84;21028;-59
2023/03/20 03:05:19;;;;;;;31.55;15.65;;;;;;;1.43;83.47;100734.20;1706939;84;21087;-59
2023/03/20 03:07:49;;;;;;;38.23;16.42;;;;;;;1.41;83.53;100728.94;1707151;84;21070;-59
2023/03/20 03:10:31;;;;;;;34.53;15.98;;;;;;;1.40;83.51;100725.88;1707165;84;21491;-60
2023/03/20 03:13:01;;;;;;;36.00;16.37;;;;;;;1.39;83.50;100728.20;1710636;83;21188;-59
2023/03/20 03:15:38;;;;;;;32.63;16.62;;;;;;;1.38;83.56;100728.34;1717831;83;21130;-60
2023/03/20 03:18:15;;;;;;;45.28;19.52;;;;;;;1.35;83.62;100722.70;1717671;83;21423;-59
2023/03/20 03:20:47;;;;;;;44.95;20.35;;;;;;;1.34;83.75;100722.34;1717881;83;21540;-61
2023/03/20 03:23:27;;;;;;;46.25;18.77;;;;;;;1.35;83.93;100721.36;1717587;83;21087;-59
2023/03/20 03:25:57;;;;;;;38.40;18.87;;;;;;;1.36;83.91;100724.91;1717700;83;21058;-59
2023/03/20 03:28:44;;;;;;;37.50;16.73;;;;;;;1.35;83.88;100725.41;1717629;82;21513;-58
2023/03/20 03:31:16;;;;;;;28.12;14.55;;;;;;;1.34;83.84;100718.30;1705108;83;21055;-60
2023/03/20 03:33:50;;;;;;;35.92;16.17;;;;;;;1.34;83.76;100722.84;1717829;83;21483;-59
2023/03/20 03:36:59;;;;;;;40.17;18.57;;;;;;;1.34;83.80;100730.44;1717666;83;21623;-59
2023/03/20 03:39:49;;;;;;;35.13;16.62;;;;;;;1.34;83.82;100724.19;1718132;83;21019;-60
2023/03/20 03:42:30;;;;;;;39.45;17.00;;;;;;;1.35;83.75;100725.90;1717616;82;21047;-60
2023/03/20 03:45:16;;;;;;;42.83;18.80;;;;;;;1.33;83.78;100722.48;1717694;83;21075;-58
2023/03/20 03:47:52;;;;;;;47.40;21.93;;;;;;;1.31;83.65;100724.45;1717792;83;21055;-59
2023/03/20 03:50:28;;;;;;;43.33;21.50;;;;;;;1.27;83.55;100726.52;1717700;83;21070;-59
2023/03/20 03:53:03;;;;;;;45.67;22.82;;;;;;;1.24;83.43;100728.98;1717820;83;21507;-60
2023/03/20 03:55:37;;;;;;;45.12;22.35;;;;;;;1.22;83.37;100730.95;1717705;83;21039;-60
2023/03/20 03:58:16;;;;;;;51.45;24.07;;;;;;;1.16;83.51;100727.92;1717784;83;21091;-59
2023/03/20 04:00:46;;;;;;;;;;;;;;;1.13;83.59;100726.83;1720650;83;21101;-59
2023/03/20 04:03:16;;;;;;;44.08;21.37;;;;;;;1.12;83.62;100720.58;1717696;83;20216;-60
2023/03/20 04:05:47;;;;;;;48.60;22.48;;;;;;;1.11;83.65;100722.05;1717522;83;21070;-60
2023/03/20 04:08:16;;;;;;;50.08;23.27;;;;;;;1.10;83.72;100727.95;1717796;83;21022;-59
2023/03/20 04:10:45;;;;;;;45.60;21.90;;;;;;;1.06;83.76;100719.75;1718064;83;20991;-60
2023/03/20 04:13:15;;;;;;;48.63;21.90;;;;;;;1.08;83.81;100722.31;1717818;82;21528;-59
2023/03/20 04:15:45;;;;;;;43.20;19.48;;;;;;;1.07;83.82;100721.46;1717418;83;21122;-59
2023/03/20 04:18:15;;;;;;;44.80;19.35;;;;;;;1.05;83.86;100722.08;1717828;83;21022;-60
2023/03/20 04:20:46;;;;;;;37.95;19.17;;;;;;;1.07;83.93;100723.30;1717719;83;21015;-59
2023/03/20 04:23:15;;;;;;;45.25;19.73;;;;;;;1.08;84.00;100723.66;1717957;83;21035;-59
2023/03/20 04:25:44;;;;;;;43.20;20.15;;;;;;;1.08;84.05;100722.31;1718089;83;20995;-59
2023/03/20 04:28:15;;;;;;;48.38;20.85;;;;;;;1.09;84.19;100726.23;1717494;83;21419;-60
2023/03/20 04:30:58;;;;;;;42.75;20.80;;;;;;;1.10;84.18;100723.04;1717251;83;21420;-58
2023/03/20 04:33:43;;;;;;;48.90;20.43;;;;;;;1.11;84.27;100726.11;1716303;82;20999;-60
2023/03/20 04:36:15;;;;;;;45.17;20.43;;;;;;;1.14;84.41;100717.25;1716917;83;21031;-60
2023/03/20 04:38:45;;;;;;;47.20;21.45;;;;;;;1.18;84.51;100723.25;1719191;83;20991;-59
2023/03/20 04:41:15;;;;;;;50.03;22.62;;;;;;;1.20;84.53;100723.98;1721443;83;21043;-59
2023/03/20 04:43:46;;;;;;;43.60;20.97;;;;;;;1.21;84.57;100724.34;1721678;83;20998;-59
2023/03/20 04:46:15;;;;;;;45.03;21.30;;;;;;;1.21;84.65;100719.80;1721683;83;21031;-59
2023/03/20 04:48:44;;;;;;;45.17;20.30;;;;;;;1.25;84.74;100723.95;1720270;83;21034;-59
2023/03/20 04:51:13;;;;;;;42.25;20.15;;;;;;;1.29;84.74;100725.89;1718101;83;21078;-60
2023/03/20 04:53:46;;;;;;;50.98;21.93;;;;;;;1.30;84.69;100727.64;1717369;82;21166;-60
2023/03/20 04:56:15;;;;;;;48.75;23.60;;;;;;;1.32;84.75;100720.77;1717773;82;21015;-60
2023/03/20 04:58:44;;;;;;;49.63;22.93;;;;;;;1.36;84.83;100723.56;1717791;83;21027;-59
2023/03/20 05:01:15;;;;;;;43.85;21.52;;;;;;;1.40;84.82;100723.66;1681583;83;21031;-60
2023/03/20 05:03:45;;;;;;;52.20;22.48;;;;;;;1.43;84.81;100724.75;1717835;83;21046;-59
2023/03/20 05:06:14;;;;;;;44.33;22.55;;;;;;;1.46;84.81;100724.00;1717894;83;21079;-60
2023/03/20 05:08:44;;;;;;;51.33;23.05;;;;;;;1.51;84.82;100724.95;1717654;83;21074;-60
2023/03/20 05:11:14;;;;;;;52.35;23.83;;;;;;;1.56;84.87;100711.91;1717716;83;22033;-59
2023/03/20 05:13:57;;;;;;;47.88;23.50;;;;;;;1.61;84.95;100717.77;1710672;82;21048;-59
2023/03/20 05:16:33;;;;;;;;;;;;;;;1.67;85.05;100723.13;1708284;84;21051;-61
2023/03/20 05:19:07;;;;;;;51.30;23.62;;;;;;;1.73;85.08;100722.60;1705498;84;20180;-59
2023/03/20 05:21:42;;;;;;;52.85;23.73;;;;;;;1.76;85.02;100720.98;1705930;84;21027;-59
2023/03/20 05:24:15;;;;;;;50.75;24.35;;;;;;;1.78;84.99;100714.95;1702911;84;21075;-58
2023/03/20 05:27:03;;;;;;;52.33;23.85;;;;;;;1.84;85.02;100717.97;1707143;84;20992;-59
2023/03/20 05:29:37;;;;;;;47.65;23.90;;;;;;;1.91;85.10;100716.94;1705141;84;21099;-60
2023/03/20 05:32:25;;;;;;;48.70;23.85;;;;;;;2.00;85.15;100718.02;1707378;84;21027;-61
2023/03/20 05:34:59;;;;;;;48.83;23.85;;;;;;;2.09;85.09;100707.74;1701669;83;21126;-59
2023/03/20 05:37:31;;;;;;;42.93;23.05;;;;;;;2.17;85.05;100706.06;1646225;87;21091;-60
2023/03/20 05:40:05;;;;;;;48.15;23.18;;;;;;;2.26;84.95;100710.30;1597796;90;21525;-61
2023/03/20 05:42:39;;;;;;;45.65;23.25;;;;;;;2.30;84.81;100709.89;1597323;90;21069;-59
2023/03/20 05:45:14;;;;;;;48.00;24.35;;;;;;;2.38;84.74;100715.46;1597149;90;21054;-60
2023/03/20 05:47:47;;;;;;;49.25;23.42;;;;;;;2.47;84.70;100713.78;1596398;90;21058;-60
2023/03/20 05:50:35;;;;;;;53.48;25.02;;;;;;;2.52;84.65;100716.92;1598480;89;21102;-61
2023/03/20 05:53:15;;;;;;;56.28;26.15;;;;;;;2.59;84.71;100712.67;1598103;88;21070;-60
2023/03/20 05:55:45;;;;;;;58.10;26.42;;;;;;;2.69;84.78;100714.08;1596977;90;21054;-61
2023/03/20 05:58:17;;;;;;;55.83;25.75;;;;;;;2.77;84.76;100712.38;1571945;89;21123;-58
2023/03/20 06:00:46;;;;;;;57.35;25.97;;;;;;;2.88;84.61;100718.16;1596145;88;21151;-60
2023/03/20 06:03:24;;;;;;;51.15;25.57;;;;;;;2.96;84.37;100718.81;1647681;87;21514;-60
2023/03/20 06:05:54;;;;;;;57.43;26.70;;;;;;;3.02;84.19;100721.81;1647546;87;21052;-58
2023/03/20 06:08:23;;;;;;;52.45;25.32;;;;;;;3.10;84.18;100727.88;1648058;87;21548;-60
2023/03/20 06:10:54;;;;;;;49.70;24.60;;;;;;;3.17;84.19;100737.98;1648297;87;21342;-60
2023/03/20 06:13:25;;;;;;;51.60;26.02;;;;;;;3.26;84.21;100732.75;1648179;86;21159;-59
2023/03/20 06:15:54;;;;;;;56.18;26.82;;;;;;;3.36;84.21;100728.19;1664337;83;21027;-59
2023/03/20 06:18:24;;;;;;;53.33;26.10;;;;;;;3.45;84.17;100730.89;1717739;83;21051;-60
2023/03/20 06:20:56;;;;;;;51.80;26.40;;;;;;;3.54;83.96;100728.31;1717932;83;21066;-61
2023/03/20 06:23:25;;;;;;;55.10;26.05;;;;;;;3.61;83.76;100734.86;1717525;83;21107;-61
2023/03/20 06:25:55;;;;;;;51.08;25.65;;;;;;;3.68;83.58;100734.64;1697672;83;21113;-59
2023/03/20 06:28:24;;;;;;;54.18;26.73;;;;;;;3.75;83.49;100739.83;1717998;82;21023;-59
2023/03/20 06:30:56;;;;;;;50.17;24.47;;;;;;;3.84;83.32;100740.31;1716322;82;21553;-60
2023/03/20 06:33:27;;;;;;;50.78;24.85;;;;;;;3.94;83.08;100742.53;1717655;83;21053;-60
2023/03/20 06:35:57;;;;;;;47.80;23.00;;;;;;;4.03;82.75;100736.22;1717725;83;21035;-61
2023/03/20 06:38:27;;;;;;;44.33;22.17;;;;;;;4.12;82.28;100739.41;1717857;83;21052;-61
2023/03/20 06:40:58;;;;;;;44.48;21.65;;;;;;;4.21;81.78;100737.66;1717752;83;21022;-61
2023/03/20 06:43:27;;;;;;;44.60;21.50;;;;;;;4.30;81.28;100731.34;1717768;83;21021;-60
2023/03/20 06:45:56;;;;;;;43.52;21.25;;;;;;;4.38;80.90;100729.23;1717927;83;21067;-61
2023/03/20 06:48:31;;;;;;;44.73;21.62;;;;;;;4.48;80.49;100729.19;1717696;82;21501;-61
2023/03/20 06:51:01;;;;;;;45.63;22.32;;;;;;;4.57;80.02;100726.45;1717805;83;21074;-60
2023/03/20 06:53:32;;;;;;;47.80;22.05;;;;;;;4.65;79.57;100721.63;1717259;83;21059;-61
2023/03/20 06:56:02;;;;;;;41.45;20.40;;;;;;;4.72;79.04;100723.59;1716809;82;21031;-61
2023/03/20 06:58:31;;;;;;;47.40;20.65;;;;;;;4.81;78.63;100716.89;1717765;83;21074;-61
2023/03/20 07:01:02;;;;;;;42.53;20.55;;;;;;;4.89;78.22;100722.41;1717693;83;21491;-61
2023/03/20 07:03:33;;;;;;;47.50;20.88;;;;;;;4.97;77.91;100723.85;1717478;83;21510;-61
2023/03/20 07:06:01;;;;;;;46.98;22.42;;;;;;;5.04;77.43;100717.65;1697783;83;21070;-62
2023/03/20 07:08:32;;;;;;;43.65;22.27;;;;;;;5.13;76.89;100721.80;1717782;83;21050;-62
2023/03/20 07:11:03;;;;;;;51.85;21.62;;;;;;;5.19;76.55;100713.89;1717567;83;21019;-61
2023/03/20 07:13:33;;;;;;;43.15;21.65;;;;;;;5.29;76.17;100710.62;1717220;82;21479;-60
2023/03/20 07:16:07;;;;;;;58.58;23.87;;;;;;;5.36;75.78;100706.27;1706572;84;21483;-61
2023/03/20 07:18:38;;;;;;;49.48;22.93;;;;;;;5.45;75.16;100713.12;1706936;84;21023;-61
2023/03/20 07:21:10;;;;;;;48.38;21.85;;;;;;;5.52;74.90;100710.98;1681302;84;21051;-62
2023/03/20 07:23:39;;;;;;;55.30;22.62;;;;;;;5.62;74.46;100708.17;1706712;83;21338;-64
2023/03/20 07:26:08;;;;;;;54.45;24.52;;;;;;;5.69;73.99;100704.66;1707157;84;21075;-62
2023/03/20 07:28:38;;;;;;;43.15;22.67;;;;;;;5.78;73.76;100700.12;1707124;84;21498;-61
2023/03/20 07:31:24;;;;;;;51.28;24.47;;;;;;;5.88;73.47;100706.35;1706810;84;21043;-62
2023/03/20 07:34:14;;;;;;;52.98;24.50;;;;;;;5.97;73.08;100701.34;1647914;86;21079;-61
2023/03/20 07:36:45;;;;;;;50.45;23.25;;;;;;;6.10;72.74;100698.69;1648234;87;21483;-62
2023/03/20 07:39:15;;;;;;;50.25;23.40;;;;;;;6.20;72.20;100696.70;1647908;87;21130;-61
2023/03/20 07:41:47;;;;;;;81.67;23.52;;;;;;;6.27;71.62;100698.61;1647891;87;21099;-60
2023/03/20 07:44:18;;;;;;;56.45;21.90;;;;;;;6.35;70.74;100696.44;1647351;85;21043;-62
2023/03/20 07:46:55;;;;;;;49.18;21.82;;;;;;;6.42;70.33;100692.05;1648372;87;21094;-62
2023/03/20 07:49:25;;;;;;;48.95;22.05;;;;;;;6.49;70.06;100692.23;1648060;87;21111;-61
2023/03/20 07:51:55;;;;;;;48.10;20.52;;;;;;;6.56;69.79;100692.81;1664777;84;21740;-62
2023/03/20 07:54:24;;;;;;;58.25;19.35;;;;;;;6.64;69.51;100686.03;1707201;84;21076;-60
2023/03/20 07:56:53;;;;;;;37.95;18.95;;;;;;;6.74;68.75;100685.03;1707157;84;21458;-62
2023/03/20 07:59:23;;;;;;;45.35;16.87;;;;;;;6.83;68.23;100686.25;1620417;88;21080;-61
2023/03/20 08:01:54;;;;;;;40.20;16.45;;;;;;;7.04;67.73;100680.33;1620460;88;21087;-63
2023/03/20 08:04:24;;;;;;;48.55;18.27;;;;;;;7.37;67.10;100677.66;1620026;88;21459;-63
2023/03/20 08:06:54;;;;;;;31.45;13.95;;;;;;;7.77;66.01;100668.59;1620464;87;21116;-62
2023/03/20 08:09:25;;;;;;;29.80;12.70;;;;;;;8.25;63.94;100666.28;1620408;88;21128;-62
2023/03/20 08:11:54;;;;;;;33.65;16.00;;;;;;;8.75;62.43;100670.55;1620235;88;21115;-60
2023/03/20 08:14:23;;;;;;;54.27;19.00;;;;;;;9.16;60.86;100665.19;1620195;87;21103;-62
2023/03/20 08:16:52;;;;;;;52.78;17.92;;;;;;;9.56;58.70;100672.72;1639288;83;21054;-62
2023/03/20 08:19:25;;;;;;;36.70;15.85;;;;;;;9.91;57.83;100675.84;1714484;83;21023;-61
2023/03/20 08:21:54;;;;;;;57.60;16.55;;;;;;;10.28;56.54;100677.17;1720440;82;21058;-60
2023/03/20 08:24:22;;;;;;;30.80;12.75;;;;;;;10.63;53.81;100671.98;1720825;83;21048;-63
2023/03/20 08:26:53;;;;;;;34.43;12.40;;;;;;;10.91;52.33;100669.36;1720789;83;21003;-63
2023/03/20 08:29:22;;;;;;;28.87;12.53;;;;;;;11.18;51.01;100677.39;1719468;83;21035;-62
2023/03/20 08:31:51;;;;;;;26.82;14.30;;;;;;;11.38;50.42;100674.32;1718285;83;21098;-62
2023/03/20 08:34:20;;;;;;;26.68;12.15;;;;;;;11.56;49.33;100675.22;1718012;83;21034;-61
2023/03/20 08:36:51;;;;;;;31.80;11.70;;;;;;;11.68;47.17;100684.09;1718059;82;21058;-62
2023/03/20 08:39:20;;;;;;;28.23;11.30;;;;;;;11.65;46.86;100670.77;1716940;83;21050;-63
2023/03/20 08:41:50;;;;;;;19.65;10.13;;;;;;;11.67;46.88;100671.94;1717786;83;21039;-61
2023/03/20 08:44:20;;;;;;;20.85;9.75;;;;;;;11.84;46.44;100669.82;1721037;83;20999;-62
2023/03/20 08:46:49;;;;;;;38.53;12.50;;;;;;;12.00;45.39;100662.12;1717896;83;21050;-67
2023/03/20 08:49:18;;;;;;;21.50;9.05;;;;;;;12.02;45.57;100658.66;1716815;83;21062;-64
2023/03/20 08:51:47;;;;;;;12.03;6.67;;;;;;;12.12;44.85;100658.82;1717790;83;20999;-66
2023/03/20 08:54:17;;;;;;;17.07;8.30;;;;;;;12.19;43.86;100652.84;1706092;83;21027;-65
2023/03/20 08:56:47;;;;;;;17.00;7.47;;;;;;;12.18;44.04;100653.89;1717454;83;21027;-66
2023/03/20 08:59:21;;;;;;;12.40;6.45;;;;;;;12.17;44.01;100652.20;1717674;82;21157;-66
2023/03/20 09:01:50;;;;;;;21.93;7.60;;;;;;;12.16;43.29;100652.72;1717463;83;21538;-65
2023/03/20 09:04:19;;;;;;;11.18;5.97;;;;;;;12.01;43.41;100651.98;1712598;82;21463;-64
2023/03/20 09:06:49;;;;;;;11.08;6.08;;;;;;;11.91;42.90;100645.48;1706411;83;21031;-66
2023/03/20 09:09:20;;;;;;;14.98;6.95;;;;;;;11.78;42.62;100649.50;1715311;82;21011;-66
2023/03/20 09:11:48;;;;;;;18.27;6.67;;;;;;;11.59;42.66;100653.72;1716314;83;21446;-65
2023/03/20 09:14:17;;;;;;;11.00;5.67;;;;;;;11.39;42.37;100640.35;1699227;84;21043;-65
2023/03/20 09:16:46;;;;;;;16.87;6.08;;;;;;;11.23;42.71;100641.99;1680764;84;21305;-65
2023/03/20 09:19:16;;;;;;;16.27;6.40;;;;;;;11.10;42.64;100638.59;1673053;86;21124;-65
2023/03/20 09:21:45;;;;;;;17.00;6.20;;;;;;;10.98;43.36;100632.75;1702486;83;21055;-64
2023/03/20 09:24:15;;;;;;;13.95;5.80;;;;;;;10.92;43.46;100633.53;1697961;83;21102;-65
2023/03/20 09:26:44;;;;;;;13.83;5.87;;;;;;;10.88;43.71;100632.73;1719616;83;21027;-64
2023/03/20 09:29:13;;;;;;;11.88;5.08;;;;;;;10.82;44.15;100617.92;1707768;83;21052;-65
2023/03/20 09:31:42;;;;;;;13.93;5.55;;;;;;;10.84;43.85;100621.84;1693484;85;21472;-65
2023/03/20 09:34:11;;;;;;;9.38;4.90;;;;;;;10.82;43.19;100623.92;1693776;85;21104;-63
2023/03/20 09:36:40;;;;;;;9.23;4.53;;;;;;;10.72;42.93;100613.27;1694247;83;21145;-64
2023/03/20 09:39:09;;;;;;;8.53;4.80;;;;;;;10.67;43.12;100615.74;1689990;83;21102;-65
2023/03/20 09:41:39;;;;;;;14.10;5.95;;;;;;;10.67;42.87;100613.00;1699859;84;21062;-65
2023/03/20 09:44:33;;;;;;;11.50;6.20;;;;;;;10.62;42.90;100618.22;1697781;84;21014;-64
2023/03/20 09:47:35;;;;;;;29.70;7.72;;;;;;;10.57;43.26;100614.69;1700096;84;21376;-67
2023/03/20 09:50:27;;;;;;;14.38;6.58;;;;;;;10.56;43.60;100613.51;1699894;84;21028;-64
2023/03/20 09:53:23;;;;;;;17.07;7.08;;;;;;;10.54;44.04;100610.95;1699787;84;21032;-65
2023/03/20 09:55:52;;;;;;;14.00;7.03;;;;;;;10.53;44.05;100602.41;1716799;83;21517;-63
2023/03/20 09:58:32;;;;;;;15.38;7.75;;;;;;;10.49;44.30;100602.47;1719645;83;21055;-64
2023/03/20 10:01:03;;;;;;;14.47;7.95;;;;;;;10.46;44.46;100595.48;1719483;83;21110;-66
2023/03/20 10:03:50;;;;;;;21.95;9.35;;;;;;;10.34;44.76;100594.77;1719092;83;21448;-65
2023/03/20 10:06:19;;;;;;;19.60;9.63;;;;;;;10.28;45.76;100582.69;1682888;84;21004;-65
2023/03/20 10:08:50;;;;;;;17.17;9.05;;;;;;;10.30;45.78;100577.87;1632717;87;21048;-65
2023/03/20 10:11:57;;;;;;;21.77;9.30;;;;;;;10.33;45.88;100578.85;1667118;86;21059;-63
2023/03/20 10:15:05;;;;;;;21.62;9.45;;;;;;;10.36;45.86;100576.25;1667233;86;21099;-65
2023/03/20 10:17:55;;;;;;;17.73;8.75;;;;;;;10.36;45.97;100570.77;1667062;86;21088;-65
2023/03/20 10:20:35;;;;;;;19.40;9.55;;;;;;;10.40;45.83;100577.08;1625424;87;21067;-65
2023/03/20 10:23:27;;;;;;;37.17;10.23;;;;;;;10.38;45.78;100570.91;1667128;86;21036;-65
2023/03/20 10:26:12;;;;;;;18.55;9.65;;;;;;;10.36;46.09;100570.25;1667375;86;21072;-64
2023/03/20 10:29:03;;;;;;;25.85;10.03;;;;;;;10.42;46.36;100566.77;1676736;85;21099;-66
2023/03/20 10:31:46;;;;;;;22.67;10.85;;;;;;;10.50;46.25;100564.44;1693515;84;21108;-64
2023/03/20 10:34:49;;;;;;;18.52;9.70;;;;;;;10.56;46.06;100558.19;1693792;84;21061;-64
2023/03/20 10:37:40;;;;;;;21.15;9.40;;;;;;;10.60;46.03;100560.86;1693694;85;21424;-65
2023/03/20 10:40:20;;;;;;;18.27;9.35;;;;;;;10.59;45.87;100546.84;1667229;85;21036;-64
2023/03/20 10:42:51;;;;;;;16.48;9.30;;;;;;;10.57;46.10;100542.08;1624099;87;21098;-64
2023/03/20 10:45:49;;;;;;;19.95;10.03;;;;;;;10.54;46.13;100527.39;1667044;86;21076;-64
2023/03/20 10:48:32;;;;;;;19.77;10.40;;;;;;;10.51;46.09;100525.56;1667111;86;21518;-64
2023/03/20 10:51:02;;;;;;;20.30;9.88;;;;;;;10.43;46.37;100525.16;1667158;86;21079;-65
2023/03/20 10:53:39;;;;;;;19.27;10.18;;;;;;;10.39;46.54;100514.23;1667077;86;21087;-62
2023/03/20 10:56:18;;;;;;;22.20;10.23;;;;;;;10.38;46.82;100519.39;1666688;86;21048;-66
2023/03/20 10:58:56;;;;;;;16.67;9.55;;;;;;;10.39;46.63;100522.45;1667117;86;21059;-65
2023/03/20 11:01:26;;;;;;;20.90;10.53;;;;;;;10.43;46.76;100524.64;1625743;88;21456;-65
2023/03/20 11:03:55;;;;;;;16.95;10.13;;;;;;;10.44;46.50;100512.64;1648087;86;21056;-63
2023/03/20 11:06:27;;;;;;;20.32;10.55;;;;;;;10.40;46.65;100512.70;1667192;86;21008;-64
2023/03/20 11:08:57;;;;;;;16.73;9.35;;;;;;;10.38;46.65;100507.91;1685781;85;21000;-66
2023/03/20 11:11:29;;;;;;;19.65;10.00;;;;;;;10.42;46.71;100511.14;1641989;86;21048;-64
2023/03/20 11:13:58;;;;;;;19.55;10.88;;;;;;;10.44;46.89;100503.06;1651619;86;21551;-65
2023/03/20 11:16:35;;;;;;;25.95;11.15;;;;;;;10.43;46.64;100502.73;1646315;86;21028;-64
2023/03/20 11:19:10;;;;;;;19.87;9.83;;;;;;;10.45;46.87;100499.80;1652352;86;21071;-64
2023/03/20 11:21:48;;;;;;;17.27;10.25;;;;;;;10.52;47.04;100493.86;1652287;86;21035;-65
2023/03/20 11:24:39;;;;;;;19.92;10.05;;;;;;;10.55;47.02;100486.62;1673117;86;21027;-65
2023/03/20 11:27:19;;;;;;;21.25;9.95;;;;;;;10.59;47.17;100478.86;1673127;86;21464;-65
2023/03/20 11:29:49;;;;;;;24.18;10.30;;;;;;;10.63;47.11;100480.16;1689756;84;21024;-64
2023/03/20 11:32:31;;;;;;;18.32;8.88;;;;;;;10.66;47.08;100473.77;1693685;85;21477;-64
2023/03/20 11:35:19;;;;;;;18.40;10.68;;;;;;;10.71;46.96;100471.28;1693776;84;21571;-66
2023/03/20 11:37:50;;;;;;;17.55;10.30;;;;;;;10.73;46.83;100465.61;1694053;85;21071;-65
2023/03/20 11:40:32;;;;;;;17.32;9.55;;;;;;;10.77;46.85;100463.64;1693744;84;21052;-65
2023/03/20 11:43:07;;;;;;;18.70;8.83;;;;;;;10.85;46.95;100459.06;1693783;85;21486;-65
2023/03/20 11:45:43;;;;;;;17.17;9.75;;;;;;;10.89;46.69;100463.11;1694086;84;21135;-65
2023/03/20 11:48:20;;;;;;;17.87;9.45;;;;;;;10.95;46.85;100452.20;1695862;84;21032;-65
2023/03/20 11:51:06;;;;;;;18.87;10.08;;;;;;;11.00;46.42;100445.59;1696551;84;21044;-64
2023/03/20 11:54:03;;;;;;;17.10;9.20;;;;;;;10.98;46.69;100449.58;1696880;84;21040;-65